sensor_id;sensor_type;location;lat;lon;timestamp;temperature;humidity
55135;DHT22;41031;44.750;11.308;2022-07-23T00:00:43;26.90;60.00
55135;DHT22;41031;44.750;11.308;2022-07-23T00:03:10;26.80;59.90
55135;DHT22;41031;44.750;11.308;2022-07-23T00:05:38;26.90;60.00
55135;DHT22;41031;44.750;11.308;2022-07-23T00:08:06;26.90;60.20
55135;DHT22;41031;44.750;11.308;2022-07-23T00:10:40;26.90;60.20
55135;DHT22;41031;44.750;11.308;2022-07-23T00:13:07;26.80;60.20
55135;DHT22;41031;44.750;11.308;2022-07-23T00:15:34;26.80;60.40
55135;DHT22;41031;44.750;11.308;2022-07-23T00:18:01;26.80;60.30
55135;DHT22;41031;44.750;11.308;2022-07-23T00:20:29;26.80;60.30
55135;DHT22;41031;44.750;11.308;2022-07-23T00:22:56;26.80;60.60
55135;DHT22;41031;44.750;11.308;2022-07-23T00:25:23;26.70;60.50
55135;DHT22;41031;44.750;11.308;2022-07-23T00:27:56;26.70;60.60
55135;DHT22;41031;44.750;11.308;2022-07-23T00:30:24;26.70;61.10
55135;DHT22;41031;44.750;11.308;2022-07-23T00:32:55;26.70;61.30
55135;DHT22;41031;44.750;11.308;2022-07-23T00:35:25;26.60;61.40
55135;DHT22;41031;44.750;11.308;2022-07-23T00:37:53;26.60;61.80
55135;DHT22;41031;44.750;11.308;2022-07-23T00:40:21;26.60;62.00
55135;DHT22;41031;44.750;11.308;2022-07-23T00:42:48;26.50;62.10
55135;DHT22;41031;44.750;11.308;2022-07-23T00:45:15;26.50;62.40
55135;DHT22;41031;44.750;11.308;2022-07-23T00:47:43;26.50;62.40
55135;DHT22;41031;44.750;11.308;2022-07-23T00:50:10;26.50;62.30
55135;DHT22;41031;44.750;11.308;2022-07-23T00:52:39;26.40;62.50
55135;DHT22;41031;44.750;11.308;2022-07-23T00:55:08;26.40;62.70
55135;DHT22;41031;44.750;11.308;2022-07-23T00:57:36;26.30;63.00
55135;DHT22;41031;44.750;11.308;2022-07-23T01:00:05;26.30;63.30
55135;DHT22;41031;44.750;11.308;2022-07-23T01:02:33;26.30;63.50
55135;DHT22;41031;44.750;11.308;2022-07-23T01:05:01;26.20;63.60
55135;DHT22;41031;44.750;11.308;2022-07-23T01:07:28;26.20;63.80
55135;DHT22;41031;44.750;11.308;2022-07-23T01:09:55;26.20;63.90
55135;DHT22;41031;44.750;11.308;2022-07-23T01:12:22;26.10;63.90
55135;DHT22;41031;44.750;11.308;2022-07-23T01:14:57;26.10;64.30
55135;DHT22;41031;44.750;11.308;2022-07-23T01:17:27;26.10;64.10
55135;DHT22;41031;44.750;11.308;2022-07-23T01:19:54;26.10;64.10
55135;DHT22;41031;44.750;11.308;2022-07-23T01:22:22;26.10;64.60
55135;DHT22;41031;44.750;11.308;2022-07-23T01:24:50;26.10;64.30
55135;DHT22;41031;44.750;11.308;2022-07-23T01:27:22;26.00;64.20
55135;DHT22;41031;44.750;11.308;2022-07-23T01:29:55;26.00;64.60
55135;DHT22;41031;44.750;11.308;2022-07-23T01:32:24;26.00;64.80
55135;DHT22;41031;44.750;11.308;2022-07-23T01:34:51;26.00;65.00
55135;DHT22;41031;44.750;11.308;2022-07-23T01:37:19;25.90;65.20
55135;DHT22;41031;44.750;11.308;2022-07-23T01:39:47;25.80;65.30
55135;DHT22;41031;44.750;11.308;2022-07-23T01:42:14;25.80;65.30
55135;DHT22;41031;44.750;11.308;2022-07-23T01:44:43;25.80;65.30
55135;DHT22;41031;44.750;11.308;2022-07-23T01:47:17;25.80;65.30
55135;DHT22;41031;44.750;11.308;2022-07-23T01:49:45;25.80;65.30
55135;DHT22;41031;44.750;11.308;2022-07-23T01:52:30;25.80;65.30
55135;DHT22;41031;44.750;11.308;2022-07-23T01:54:57;25.80;65.50
55135;DHT22;41031;44.750;11.308;2022-07-23T01:57:25;25.80;65.60
55135;DHT22;41031;44.750;11.308;2022-07-23T01:59:52;25.80;65.60
55135;DHT22;41031;44.750;11.308;2022-07-23T02:02:20;25.70;65.60
55135;DHT22;41031;44.750;11.308;2022-07-23T02:04:48;25.70;65.80
55135;DHT22;41031;44.750;11.308;2022-07-23T02:07:17;25.60;66.10
55135;DHT22;41031;44.750;11.308;2022-07-23T02:09:44;25.60;66.60
55135;DHT22;41031;44.750;11.308;2022-07-23T02:12:12;25.60;67.00
55135;DHT22;41031;44.750;11.308;2022-07-23T02:14:39;25.50;66.90
55135;DHT22;41031;44.750;11.308;2022-07-23T02:17:06;25.50;66.70
55135;DHT22;41031;44.750;11.308;2022-07-23T02:19:34;25.40;66.60
55135;DHT22;41031;44.750;11.308;2022-07-23T02:22:02;25.40;67.00
55135;DHT22;41031;44.750;11.308;2022-07-23T02:24:29;25.40;67.30
55135;DHT22;41031;44.750;11.308;2022-07-23T02:26:56;25.40;67.40
55135;DHT22;41031;44.750;11.308;2022-07-23T02:29:23;25.40;68.40
55135;DHT22;41031;44.750;11.308;2022-07-23T02:31:53;25.30;67.80
55135;DHT22;41031;44.750;11.308;2022-07-23T02:34:22;25.40;67.80
55135;DHT22;41031;44.750;11.308;2022-07-23T02:36:49;25.30;67.30
55135;DHT22;41031;44.750;11.308;2022-07-23T02:39:16;25.20;67.30
55135;DHT22;41031;44.750;11.308;2022-07-23T02:41:44;25.20;67.70
55135;DHT22;41031;44.750;11.308;2022-07-23T02:44:11;25.20;68.00
55135;DHT22;41031;44.750;11.308;2022-07-23T02:46:39;25.10;68.40
55135;DHT22;41031;44.750;11.308;2022-07-23T02:49:06;25.10;68.90
55135;DHT22;41031;44.750;11.308;2022-07-23T02:51:34;25.10;69.00
55135;DHT22;41031;44.750;11.308;2022-07-23T02:54:04;25.10;69.30
55135;DHT22;41031;44.750;11.308;2022-07-23T02:56:31;25.10;69.50
55135;DHT22;41031;44.750;11.308;2022-07-23T02:58:58;25.10;69.70
55135;DHT22;41031;44.750;11.308;2022-07-23T03:01:26;25.10;69.80
55135;DHT22;41031;44.750;11.308;2022-07-23T03:03:53;25.10;69.80
55135;DHT22;41031;44.750;11.308;2022-07-23T03:06:21;25.10;69.60
55135;DHT22;41031;44.750;11.308;2022-07-23T03:08:49;25.00;69.50
55135;DHT22;41031;44.750;11.308;2022-07-23T03:11:16;25.00;69.50
55135;DHT22;41031;44.750;11.308;2022-07-23T03:13:44;25.00;69.30
55135;DHT22;41031;44.750;11.308;2022-07-23T03:16:12;25.00;69.00
55135;DHT22;41031;44.750;11.308;2022-07-23T03:18:39;25.00;69.20
55135;DHT22;41031;44.750;11.308;2022-07-23T03:21:08;25.00;69.30
55135;DHT22;41031;44.750;11.308;2022-07-23T03:23:37;24.90;69.40
55135;DHT22;41031;44.750;11.308;2022-07-23T03:26:04;24.90;69.60
55135;DHT22;41031;44.750;11.308;2022-07-23T03:28:31;24.90;69.70
55135;DHT22;41031;44.750;11.308;2022-07-23T03:30:58;24.80;69.70
55135;DHT22;41031;44.750;11.308;2022-07-23T03:33:26;24.80;69.80
55135;DHT22;41031;44.750;11.308;2022-07-23T03:35:53;24.80;69.80
55135;DHT22;41031;44.750;11.308;2022-07-23T03:38:26;24.80;69.80
55135;DHT22;41031;44.750;11.308;2022-07-23T03:40:53;24.80;69.60
55135;DHT22;41031;44.750;11.308;2022-07-23T03:43:20;24.80;69.40
55135;DHT22;41031;44.750;11.308;2022-07-23T03:45:47;24.70;69.50
55135;DHT22;41031;44.750;11.308;2022-07-23T03:48:15;24.70;69.40
55135;DHT22;41031;44.750;11.308;2022-07-23T03:50:44;24.70;69.60
55135;DHT22;41031;44.750;11.308;2022-07-23T03:53:11;24.60;69.80
55135;DHT22;41031;44.750;11.308;2022-07-23T03:55:38;24.60;70.10
55135;DHT22;41031;44.750;11.308;2022-07-23T03:58:05;24.60;70.40
55135;DHT22;41031;44.750;11.308;2022-07-23T04:00:32;24.60;70.40
55135;DHT22;41031;44.750;11.308;2022-07-23T04:02:59;24.60;70.20
55135;DHT22;41031;44.750;11.308;2022-07-23T04:05:27;24.50;69.90
55135;DHT22;41031;44.750;11.308;2022-07-23T04:08:04;24.50;69.80
55135;DHT22;41031;44.750;11.308;2022-07-23T04:10:32;24.50;69.80
55135;DHT22;41031;44.750;11.308;2022-07-23T04:12:59;24.50;69.70
55135;DHT22;41031;44.750;11.308;2022-07-23T04:15:26;24.50;69.90
55135;DHT22;41031;44.750;11.308;2022-07-23T04:17:54;24.50;69.90
55135;DHT22;41031;44.750;11.308;2022-07-23T04:20:25;24.50;69.70
55135;DHT22;41031;44.750;11.308;2022-07-23T04:22:57;24.60;69.70
55135;DHT22;41031;44.750;11.308;2022-07-23T04:25:24;24.60;69.70
55135;DHT22;41031;44.750;11.308;2022-07-23T04:27:51;24.60;69.80
55135;DHT22;41031;44.750;11.308;2022-07-23T04:30:18;24.70;69.60
55135;DHT22;41031;44.750;11.308;2022-07-23T04:32:45;24.70;69.50
55135;DHT22;41031;44.750;11.308;2022-07-23T04:35:19;24.70;69.60
55135;DHT22;41031;44.750;11.308;2022-07-23T04:37:49;24.70;69.70
55135;DHT22;41031;44.750;11.308;2022-07-23T04:40:18;24.70;69.80
55135;DHT22;41031;44.750;11.308;2022-07-23T04:42:46;24.80;70.00
55135;DHT22;41031;44.750;11.308;2022-07-23T04:45:13;24.80;69.80
55135;DHT22;41031;44.750;11.308;2022-07-23T04:47:43;24.90;69.80
55135;DHT22;41031;44.750;11.308;2022-07-23T04:50:12;25.00;69.80
55135;DHT22;41031;44.750;11.308;2022-07-23T04:52:40;25.00;69.40
55135;DHT22;41031;44.750;11.308;2022-07-23T04:55:07;25.10;69.20
55135;DHT22;41031;44.750;11.308;2022-07-23T04:57:35;25.20;69.20
55135;DHT22;41031;44.750;11.308;2022-07-23T05:00:04;25.20;69.00
55135;DHT22;41031;44.750;11.308;2022-07-23T05:02:31;25.30;69.00
55135;DHT22;41031;44.750;11.308;2022-07-23T05:04:59;25.40;69.20
55135;DHT22;41031;44.750;11.308;2022-07-23T05:07:26;25.50;69.10
55135;DHT22;41031;44.750;11.308;2022-07-23T05:09:54;25.50;68.60
55135;DHT22;41031;44.750;11.308;2022-07-23T05:12:21;25.60;68.30
55135;DHT22;41031;44.750;11.308;2022-07-23T05:14:48;25.70;68.30
55135;DHT22;41031;44.750;11.308;2022-07-23T05:17:15;25.80;68.30
55135;DHT22;41031;44.750;11.308;2022-07-23T05:19:43;25.90;68.50
55135;DHT22;41031;44.750;11.308;2022-07-23T05:22:10;26.10;68.40
55135;DHT22;41031;44.750;11.308;2022-07-23T05:24:37;26.20;68.20
55135;DHT22;41031;44.750;11.308;2022-07-23T05:27:06;26.30;68.00
55135;DHT22;41031;44.750;11.308;2022-07-23T05:29:34;26.40;67.80
55135;DHT22;41031;44.750;11.308;2022-07-23T05:32:01;26.50;67.50
55135;DHT22;41031;44.750;11.308;2022-07-23T05:34:30;26.60;67.30
55135;DHT22;41031;44.750;11.308;2022-07-23T05:36:59;26.80;66.90
55135;DHT22;41031;44.750;11.308;2022-07-23T05:39:26;26.90;66.70
55135;DHT22;41031;44.750;11.308;2022-07-23T05:41:53;27.10;66.50
55135;DHT22;41031;44.750;11.308;2022-07-23T05:44:20;27.20;65.90
55135;DHT22;41031;44.750;11.308;2022-07-23T05:46:47;27.40;65.00
55135;DHT22;41031;44.750;11.308;2022-07-23T05:49:20;27.60;63.30
55135;DHT22;41031;44.750;11.308;2022-07-23T05:52:06;27.80;62.10
55135;DHT22;41031;44.750;11.308;2022-07-23T05:54:59;28.00;60.70
55135;DHT22;41031;44.750;11.308;2022-07-23T05:57:27;28.10;59.70
55135;DHT22;41031;44.750;11.308;2022-07-23T05:59:54;28.20;58.90
55135;DHT22;41031;44.750;11.308;2022-07-23T06:02:21;28.40;58.30
55135;DHT22;41031;44.750;11.308;2022-07-23T06:04:49;28.50;57.90
55135;DHT22;41031;44.750;11.308;2022-07-23T06:07:27;28.70;57.30
55135;DHT22;41031;44.750;11.308;2022-07-23T06:09:54;28.80;56.80
55135;DHT22;41031;44.750;11.308;2022-07-23T06:12:22;29.00;56.50
55135;DHT22;41031;44.750;11.308;2022-07-23T06:14:49;29.10;55.80
55135;DHT22;41031;44.750;11.308;2022-07-23T06:17:20;29.20;55.30
55135;DHT22;41031;44.750;11.308;2022-07-23T06:19:47;29.30;55.40
55135;DHT22;41031;44.750;11.308;2022-07-23T06:22:15;29.40;55.30
55135;DHT22;41031;44.750;11.308;2022-07-23T06:24:42;29.50;55.40
55135;DHT22;41031;44.750;11.308;2022-07-23T06:27:09;29.60;55.50
55135;DHT22;41031;44.750;11.308;2022-07-23T06:29:38;29.70;55.00
55135;DHT22;41031;44.750;11.308;2022-07-23T06:32:08;29.80;54.60
55135;DHT22;41031;44.750;11.308;2022-07-23T06:34:35;29.90;54.30
55135;DHT22;41031;44.750;11.308;2022-07-23T06:37:02;30.00;54.00
55135;DHT22;41031;44.750;11.308;2022-07-23T06:39:29;30.10;53.40
55135;DHT22;41031;44.750;11.308;2022-07-23T06:41:58;30.30;53.40
55135;DHT22;41031;44.750;11.308;2022-07-23T06:44:37;30.50;53.40
55135;DHT22;41031;44.750;11.308;2022-07-23T06:47:07;30.70;53.30
55135;DHT22;41031;44.750;11.308;2022-07-23T06:49:35;30.90;52.80
55135;DHT22;41031;44.750;11.308;2022-07-23T06:52:02;31.00;52.50
55135;DHT22;41031;44.750;11.308;2022-07-23T06:54:30;31.20;52.20
55135;DHT22;41031;44.750;11.308;2022-07-23T06:56:57;31.40;51.80
55135;DHT22;41031;44.750;11.308;2022-07-23T06:59:26;31.60;51.30
55135;DHT22;41031;44.750;11.308;2022-07-23T07:01:54;31.70;50.70
55135;DHT22;41031;44.750;11.308;2022-07-23T07:04:23;31.90;49.60
55135;DHT22;41031;44.750;11.308;2022-07-23T07:06:50;32.10;48.90
55135;DHT22;41031;44.750;11.308;2022-07-23T07:09:17;32.30;48.50
55135;DHT22;41031;44.750;11.308;2022-07-23T07:11:44;32.40;47.90
55135;DHT22;41031;44.750;11.308;2022-07-23T07:14:12;32.60;47.70
55135;DHT22;41031;44.750;11.308;2022-07-23T07:16:40;32.80;47.40
55135;DHT22;41031;44.750;11.308;2022-07-23T07:19:07;32.90;46.90
55135;DHT22;41031;44.750;11.308;2022-07-23T07:21:34;33.10;46.00
55135;DHT22;41031;44.750;11.308;2022-07-23T07:24:02;33.30;45.30
55135;DHT22;41031;44.750;11.308;2022-07-23T07:26:29;33.40;45.10
55135;DHT22;41031;44.750;11.308;2022-07-23T07:28:57;33.50;44.90
55135;DHT22;41031;44.750;11.308;2022-07-23T07:31:25;33.60;44.80
55135;DHT22;41031;44.750;11.308;2022-07-23T07:33:53;33.80;44.90
55135;DHT22;41031;44.750;11.308;2022-07-23T07:36:21;33.90;44.40
55135;DHT22;41031;44.750;11.308;2022-07-23T07:38:48;34.00;43.20
55135;DHT22;41031;44.750;11.308;2022-07-23T07:41:16;34.20;42.60
55135;DHT22;41031;44.750;11.308;2022-07-23T07:43:43;34.30;42.10
55135;DHT22;41031;44.750;11.308;2022-07-23T07:46:10;34.50;41.50
55135;DHT22;41031;44.750;11.308;2022-07-23T07:48:38;34.60;40.50
55135;DHT22;41031;44.750;11.308;2022-07-23T07:51:05;34.70;39.90
55135;DHT22;41031;44.750;11.308;2022-07-23T07:53:34;34.80;39.00
55135;DHT22;41031;44.750;11.308;2022-07-23T07:56:02;34.90;38.40
55135;DHT22;41031;44.750;11.308;2022-07-23T07:58:29;34.90;36.90
55135;DHT22;41031;44.750;11.308;2022-07-23T08:00:59;34.90;37.10
55135;DHT22;41031;44.750;11.308;2022-07-23T08:03:27;35.00;36.90
55135;DHT22;41031;44.750;11.308;2022-07-23T08:05:55;35.00;36.60
55135;DHT22;41031;44.750;11.308;2022-07-23T08:08:23;35.00;37.40
55135;DHT22;41031;44.750;11.308;2022-07-23T08:10:50;35.00;37.60
55135;DHT22;41031;44.750;11.308;2022-07-23T08:13:17;35.10;38.20
55135;DHT22;41031;44.750;11.308;2022-07-23T08:15:44;35.20;38.70
55135;DHT22;41031;44.750;11.308;2022-07-23T08:18:12;35.30;38.50
55135;DHT22;41031;44.750;11.308;2022-07-23T08:20:40;35.40;38.00
55135;DHT22;41031;44.750;11.308;2022-07-23T08:23:08;35.40;37.70
55135;DHT22;41031;44.750;11.308;2022-07-23T08:25:37;35.40;37.80
55135;DHT22;41031;44.750;11.308;2022-07-23T08:28:07;35.50;37.20
55135;DHT22;41031;44.750;11.308;2022-07-23T08:30:35;35.60;37.30
55135;DHT22;41031;44.750;11.308;2022-07-23T08:33:05;35.60;37.50
55135;DHT22;41031;44.750;11.308;2022-07-23T08:35:36;35.70;37.10
55135;DHT22;41031;44.750;11.308;2022-07-23T08:38:09;35.70;37.30
55135;DHT22;41031;44.750;11.308;2022-07-23T08:40:39;35.70;37.00
55135;DHT22;41031;44.750;11.308;2022-07-23T08:43:15;35.70;37.20
55135;DHT22;41031;44.750;11.308;2022-07-23T08:45:45;35.70;37.60
55135;DHT22;41031;44.750;11.308;2022-07-23T08:50:45;35.90;38.00
55135;DHT22;41031;44.750;11.308;2022-07-23T08:53:12;36.00;38.30
55135;DHT22;41031;44.750;11.308;2022-07-23T08:55:43;36.10;38.00
55135;DHT22;41031;44.750;11.308;2022-07-23T08:58:12;36.20;38.50
55135;DHT22;41031;44.750;11.308;2022-07-23T09:00:39;36.30;37.40
55135;DHT22;41031;44.750;11.308;2022-07-23T09:03:06;36.30;36.70
55135;DHT22;41031;44.750;11.308;2022-07-23T09:05:33;36.40;36.10
55135;DHT22;41031;44.750;11.308;2022-07-23T09:08:06;36.50;35.60
55135;DHT22;41031;44.750;11.308;2022-07-23T09:13:38;36.80;35.60
55135;DHT22;41031;44.750;11.308;2022-07-23T09:16:16;36.90;34.30
55135;DHT22;41031;44.750;11.308;2022-07-23T09:21:25;37.10;34.50
55135;DHT22;41031;44.750;11.308;2022-07-23T09:23:56;37.20;34.40
55135;DHT22;41031;44.750;11.308;2022-07-23T09:26:27;37.30;35.00
55135;DHT22;41031;44.750;11.308;2022-07-23T09:29:17;37.40;33.30
55135;DHT22;41031;44.750;11.308;2022-07-23T09:32:00;37.50;33.10
55135;DHT22;41031;44.750;11.308;2022-07-23T09:34:30;37.50;34.00
55135;DHT22;41031;44.750;11.308;2022-07-23T09:39:37;37.70;34.40
55135;DHT22;41031;44.750;11.308;2022-07-23T09:44:46;37.80;33.60
55135;DHT22;41031;44.750;11.308;2022-07-23T09:47:14;37.80;33.50
55135;DHT22;41031;44.750;11.308;2022-07-23T09:52:33;38.00;32.70
55135;DHT22;41031;44.750;11.308;2022-07-23T09:55:04;38.10;32.60
55135;DHT22;41031;44.750;11.308;2022-07-23T09:57:32;38.10;32.30
55135;DHT22;41031;44.750;11.308;2022-07-23T10:00:07;38.20;32.20
55135;DHT22;41031;44.750;11.308;2022-07-23T10:02:36;38.20;32.80
55135;DHT22;41031;44.750;11.308;2022-07-23T10:05:25;38.30;33.00
55135;DHT22;41031;44.750;11.308;2022-07-23T10:08:12;38.50;33.00
55135;DHT22;41031;44.750;11.308;2022-07-23T10:10:58;38.60;32.70
55135;DHT22;41031;44.750;11.308;2022-07-23T10:13:39;38.80;32.40
55135;DHT22;41031;44.750;11.308;2022-07-23T10:16:21;38.90;32.90
55135;DHT22;41031;44.750;11.308;2022-07-23T10:18:53;39.00;31.90
55135;DHT22;41031;44.750;11.308;2022-07-23T10:21:30;39.10;31.90
55135;DHT22;41031;44.750;11.308;2022-07-23T10:34:52;39.30;31.20
55135;DHT22;41031;44.750;11.308;2022-07-23T10:37:43;39.30;31.30
55135;DHT22;41031;44.750;11.308;2022-07-23T10:40:16;39.30;32.40
55135;DHT22;41031;44.750;11.308;2022-07-23T10:42:48;39.40;32.40
55135;DHT22;41031;44.750;11.308;2022-07-23T10:47:54;39.40;31.50
55135;DHT22;41031;44.750;11.308;2022-07-23T10:50:27;39.50;31.90
55135;DHT22;41031;44.750;11.308;2022-07-23T10:58:04;39.50;30.70
55135;DHT22;41031;44.750;11.308;2022-07-23T11:00:33;39.40;31.70
55135;DHT22;41031;44.750;11.308;2022-07-23T11:03:04;39.50;31.90
55135;DHT22;41031;44.750;11.308;2022-07-23T11:05:42;39.60;30.70
55135;DHT22;41031;44.750;11.308;2022-07-23T11:08:12;39.60;30.40
55135;DHT22;41031;44.750;11.308;2022-07-23T11:13:32;39.70;30.30
55135;DHT22;41031;44.750;11.308;2022-07-23T11:24:00;40.00;29.60
55135;DHT22;41031;44.750;11.308;2022-07-23T11:34:43;40.00;28.10
55135;DHT22;41031;44.750;11.308;2022-07-23T11:37:15;40.20;28.10
55135;DHT22;41031;44.750;11.308;2022-07-23T11:39:56;40.30;28.80
55135;DHT22;41031;44.750;11.308;2022-07-23T11:42:25;40.40;28.40
55135;DHT22;41031;44.750;11.308;2022-07-23T11:44:57;40.40;28.40
55135;DHT22;41031;44.750;11.308;2022-07-23T11:47:26;40.40;29.30
55135;DHT22;41031;44.750;11.308;2022-07-23T11:49:56;40.30;29.50
55135;DHT22;41031;44.750;11.308;2022-07-23T11:52:25;40.20;29.80
55135;DHT22;41031;44.750;11.308;2022-07-23T11:55:06;40.00;30.10
55135;DHT22;41031;44.750;11.308;2022-07-23T11:57:39;39.90;30.30
55135;DHT22;41031;44.750;11.308;2022-07-23T12:00:13;39.90;30.00
55135;DHT22;41031;44.750;11.308;2022-07-23T12:02:45;39.90;29.30
55135;DHT22;41031;44.750;11.308;2022-07-23T12:05:21;40.00;29.90
55135;DHT22;41031;44.750;11.308;2022-07-23T12:07:51;40.00;28.80
55135;DHT22;41031;44.750;11.308;2022-07-23T12:10:29;40.00;29.00
55135;DHT22;41031;44.750;11.308;2022-07-23T12:13:02;39.90;28.60
55135;DHT22;41031;44.750;11.308;2022-07-23T12:15:39;39.90;29.10
55135;DHT22;41031;44.750;11.308;2022-07-23T12:18:16;39.90;29.70
55135;DHT22;41031;44.750;11.308;2022-07-23T12:20:46;39.90;29.50
55135;DHT22;41031;44.750;11.308;2022-07-23T12:23:16;39.70;29.60
55135;DHT22;41031;44.750;11.308;2022-07-23T12:25:48;39.80;30.00
55135;DHT22;41031;44.750;11.308;2022-07-23T12:28:19;39.80;29.30
55135;DHT22;41031;44.750;11.308;2022-07-23T12:30:51;39.80;29.00
55135;DHT22;41031;44.750;11.308;2022-07-23T12:35:53;40.00;29.60
55135;DHT22;41031;44.750;11.308;2022-07-23T12:38:22;40.20;29.90
55135;DHT22;41031;44.750;11.308;2022-07-23T12:40:50;40.30;29.60
55135;DHT22;41031;44.750;11.308;2022-07-23T12:43:24;40.30;28.70
55135;DHT22;41031;44.750;11.308;2022-07-23T12:46:17;40.30;28.50
55135;DHT22;41031;44.750;11.308;2022-07-23T12:48:50;40.30;28.80
55135;DHT22;41031;44.750;11.308;2022-07-23T12:51:27;40.30;28.30
55135;DHT22;41031;44.750;11.308;2022-07-23T12:54:05;40.30;28.30
55135;DHT22;41031;44.750;11.308;2022-07-23T12:56:36;40.20;28.30
55135;DHT22;41031;44.750;11.308;2022-07-23T13:01:33;40.30;28.80
55135;DHT22;41031;44.750;11.308;2022-07-23T13:06:52;40.30;29.00
55135;DHT22;41031;44.750;11.308;2022-07-23T13:09:24;40.20;28.40
55135;DHT22;41031;44.750;11.308;2022-07-23T13:11:53;40.20;29.00
55135;DHT22;41031;44.750;11.308;2022-07-23T13:14:24;40.30;29.10
55135;DHT22;41031;44.750;11.308;2022-07-23T13:16:55;40.40;29.20
55135;DHT22;41031;44.750;11.308;2022-07-23T13:19:26;40.40;28.80
55135;DHT22;41031;44.750;11.308;2022-07-23T13:21:54;40.50;28.90
55135;DHT22;41031;44.750;11.308;2022-07-23T13:24:21;40.60;28.90
55135;DHT22;41031;44.750;11.308;2022-07-23T13:26:51;40.70;28.80
55135;DHT22;41031;44.750;11.308;2022-07-23T13:29:19;40.70;28.80
55135;DHT22;41031;44.750;11.308;2022-07-23T13:31:48;40.70;28.40
55135;DHT22;41031;44.750;11.308;2022-07-23T13:34:17;40.70;29.00
55135;DHT22;41031;44.750;11.308;2022-07-23T13:36:46;40.80;29.10
55135;DHT22;41031;44.750;11.308;2022-07-23T13:39:13;40.80;29.10
55135;DHT22;41031;44.750;11.308;2022-07-23T13:41:41;40.80;28.90
55135;DHT22;41031;44.750;11.308;2022-07-23T13:44:17;40.70;28.80
55135;DHT22;41031;44.750;11.308;2022-07-23T13:46:49;40.50;28.60
55135;DHT22;41031;44.750;11.308;2022-07-23T13:49:16;40.40;28.50
55135;DHT22;41031;44.750;11.308;2022-07-23T13:51:45;40.30;28.70
55135;DHT22;41031;44.750;11.308;2022-07-23T13:54:13;40.20;28.80
55135;DHT22;41031;44.750;11.308;2022-07-23T13:56:40;40.10;28.30
55135;DHT22;41031;44.750;11.308;2022-07-23T13:59:08;40.00;29.00
55135;DHT22;41031;44.750;11.308;2022-07-23T14:01:36;40.00;29.10
55135;DHT22;41031;44.750;11.308;2022-07-23T14:04:23;40.00;29.10
55135;DHT22;41031;44.750;11.308;2022-07-23T14:06:51;39.90;28.90
55135;DHT22;41031;44.750;11.308;2022-07-23T14:09:21;39.90;28.90
55135;DHT22;41031;44.750;11.308;2022-07-23T14:11:52;39.90;28.90
55135;DHT22;41031;44.750;11.308;2022-07-23T14:14:19;39.80;29.00
55135;DHT22;41031;44.750;11.308;2022-07-23T14:16:48;39.80;28.80
55135;DHT22;41031;44.750;11.308;2022-07-23T14:19:15;39.80;29.00
55135;DHT22;41031;44.750;11.308;2022-07-23T14:21:43;39.80;28.70
55135;DHT22;41031;44.750;11.308;2022-07-23T14:24:10;39.80;29.30
55135;DHT22;41031;44.750;11.308;2022-07-23T14:26:38;39.80;29.50
55135;DHT22;41031;44.750;11.308;2022-07-23T14:29:05;39.80;29.20
55135;DHT22;41031;44.750;11.308;2022-07-23T14:31:34;39.80;28.80
55135;DHT22;41031;44.750;11.308;2022-07-23T14:34:03;39.70;29.40
55135;DHT22;41031;44.750;11.308;2022-07-23T14:36:30;39.80;29.00
55135;DHT22;41031;44.750;11.308;2022-07-23T14:38:58;39.70;29.00
55135;DHT22;41031;44.750;11.308;2022-07-23T14:41:27;39.70;29.30
55135;DHT22;41031;44.750;11.308;2022-07-23T14:43:56;39.70;29.30
55135;DHT22;41031;44.750;11.308;2022-07-23T14:46:23;39.70;29.30
55135;DHT22;41031;44.750;11.308;2022-07-23T14:48:51;39.60;29.20
55135;DHT22;41031;44.750;11.308;2022-07-23T14:51:19;39.50;29.40
55135;DHT22;41031;44.750;11.308;2022-07-23T14:53:47;39.50;29.70
55135;DHT22;41031;44.750;11.308;2022-07-23T14:56:15;39.50;29.40
55135;DHT22;41031;44.750;11.308;2022-07-23T14:58:42;39.50;29.50
55135;DHT22;41031;44.750;11.308;2022-07-23T15:01:11;39.50;29.50
55135;DHT22;41031;44.750;11.308;2022-07-23T15:03:38;39.50;29.80
55135;DHT22;41031;44.750;11.308;2022-07-23T15:06:09;39.50;29.60
55135;DHT22;41031;44.750;11.308;2022-07-23T15:08:39;39.40;29.50
55135;DHT22;41031;44.750;11.308;2022-07-23T15:11:06;39.40;29.70
55135;DHT22;41031;44.750;11.308;2022-07-23T15:13:37;39.40;30.30
55135;DHT22;41031;44.750;11.308;2022-07-23T15:16:05;39.30;30.00
55135;DHT22;41031;44.750;11.308;2022-07-23T15:18:36;39.30;29.60
55135;DHT22;41031;44.750;11.308;2022-07-23T15:21:04;39.30;29.70
55135;DHT22;41031;44.750;11.308;2022-07-23T15:23:34;39.30;29.80
55135;DHT22;41031;44.750;11.308;2022-07-23T15:26:02;39.20;29.80
55135;DHT22;41031;44.750;11.308;2022-07-23T15:28:30;39.20;29.40
55135;DHT22;41031;44.750;11.308;2022-07-23T15:30:57;39.20;29.60
55135;DHT22;41031;44.750;11.308;2022-07-23T15:33:25;39.20;29.50
55135;DHT22;41031;44.750;11.308;2022-07-23T15:35:53;39.10;30.00
55135;DHT22;41031;44.750;11.308;2022-07-23T15:38:24;39.10;29.80
55135;DHT22;41031;44.750;11.308;2022-07-23T15:40:53;39.00;29.30
55135;DHT22;41031;44.750;11.308;2022-07-23T15:43:22;39.00;29.50
55135;DHT22;41031;44.750;11.308;2022-07-23T15:45:52;39.00;29.70
55135;DHT22;41031;44.750;11.308;2022-07-23T15:48:21;38.90;29.80
55135;DHT22;41031;44.750;11.308;2022-07-23T15:50:49;38.80;29.80
55135;DHT22;41031;44.750;11.308;2022-07-23T15:53:17;38.70;29.80
55135;DHT22;41031;44.750;11.308;2022-07-23T15:56:03;38.60;30.10
55135;DHT22;41031;44.750;11.308;2022-07-23T15:58:31;38.60;29.70
55135;DHT22;41031;44.750;11.308;2022-07-23T16:01:00;38.60;30.00
55135;DHT22;41031;44.750;11.308;2022-07-23T16:03:30;38.60;30.00
55135;DHT22;41031;44.750;11.308;2022-07-23T16:05:59;38.60;29.90
55135;DHT22;41031;44.750;11.308;2022-07-23T16:08:27;38.50;30.60
55135;DHT22;41031;44.750;11.308;2022-07-23T16:10:54;38.50;29.90
55135;DHT22;41031;44.750;11.308;2022-07-23T16:13:25;38.50;30.00
55135;DHT22;41031;44.750;11.308;2022-07-23T16:15:53;38.40;30.10
55135;DHT22;41031;44.750;11.308;2022-07-23T16:18:21;38.40;30.50
55135;DHT22;41031;44.750;11.308;2022-07-23T16:20:49;38.40;30.00
55135;DHT22;41031;44.750;11.308;2022-07-23T16:23:17;38.40;30.10
55135;DHT22;41031;44.750;11.308;2022-07-23T16:25:44;38.30;30.10
55135;DHT22;41031;44.750;11.308;2022-07-23T16:28:12;38.30;30.90
55135;DHT22;41031;44.750;11.308;2022-07-23T16:30:39;38.30;30.50